Time;durP1;ratioP1;P1;durP2;ratioP2;P2;SDS_P1;SDS_P2;PMS_P1;PMS_P2;Temp;Humidity;BMP_temperature;BMP_pressure;BME280_temperature;BME280_humidity;BME280_pressure;Samples;Min_cycle;Max_cycle;Signal;HPM_P1;HPM_P2
2023/07/28 00:00:33;;;;;;;5.60;1.90;;;;;;;15.93;79.66;98463.77;107674;1254;60851;-37
2023/07/28 00:03:00;;;;;;;2.80;1.70;;;;;;;15.94;79.71;98462.65;107725;1252;59200;-37
2023/07/28 00:05:28;;;;;;;4.60;2.00;;;;;;;15.94;79.56;98463.73;107635;1253;73902;-38
2023/07/28 00:07:55;;;;;;;4.20;2.10;;;;;;;15.93;79.63;98462.74;107622;1256;68106;-38
2023/07/28 00:10:23;;;;;;;9.50;2.00;;;;;;;15.92;79.63;98466.30;107682;1252;73134;-38
2023/07/28 00:12:50;;;;;;;7.40;2.00;;;;;;;15.89;79.86;98470.08;107699;1253;60537;-38
2023/07/28 00:15:18;;;;;;;4.60;1.90;;;;;;;15.90;79.87;98469.91;107624;1254;60313;-38
2023/07/28 00:17:45;;;;;;;5.00;1.90;;;;;;;15.93;79.99;98468.38;107631;1252;73174;-38
2023/07/28 00:20:13;;;;;;;5.10;2.00;;;;;;;15.96;79.85;98459.82;107712;1254;67568;-38
2023/07/28 00:22:41;;;;;;;5.70;2.30;;;;;;;15.94;79.61;98453.98;107612;1253;73115;-38
2023/07/28 00:25:09;;;;;;;5.90;1.80;;;;;;;15.88;79.51;98449.02;107667;1254;60440;-38
2023/07/28 00:27:36;;;;;;;5.10;2.20;;;;;;;15.86;79.45;98446.41;107604;1254;60309;-38
2023/07/28 00:30:05;;;;;;;5.50;1.50;;;;;;;15.85;79.20;98440.31;107639;1254;73921;-38
2023/07/28 00:32:33;;;;;;;6.40;1.90;;;;;;;15.86;79.34;98434.21;107701;1254;66746;-38
2023/07/28 00:35:02;;;;;;;3.30;2.00;;;;;;;15.86;79.26;98439.06;107659;1254;71355;-38
2023/07/28 00:37:30;;;;;;;3.40;1.80;;;;;;;15.85;79.23;98444.07;107669;1255;61681;-38
2023/07/28 00:39:58;;;;;;;7.30;2.00;;;;;;;15.88;79.07;98444.80;107698;1252;59572;-38
2023/07/28 00:42:25;;;;;;;5.00;1.90;;;;;;;15.89;78.94;98452.67;107619;1255;72634;-38
2023/07/28 00:44:53;;;;;;;5.70;1.80;;;;;;;15.89;78.87;98450.48;107710;1256;67605;-38
2023/07/28 00:47:21;;;;;;;7.10;2.00;;;;;;;15.86;78.79;98453.04;107505;1258;72769;-38
2023/07/28 00:49:49;;;;;;;4.90;1.90;;;;;;;15.84;78.81;98452.14;107664;1254;60435;-37
2023/07/28 00:52:16;;;;;;;4.50;2.00;;;;;;;15.82;78.60;98452.26;107510;1258;60373;-39
2023/07/28 00:54:44;;;;;;;6.30;1.80;;;;;;;15.80;78.46;98451.73;107664;1254;73868;-38
2023/07/28 00:57:11;;;;;;;4.20;1.90;;;;;;;15.78;78.61;98458.88;107521;1252;67691;-38
2023/07/28 00:59:39;;;;;;;6.40;2.10;;;;;;;15.72;78.65;98456.09;107674;1254;72723;-38
2023/07/28 01:02:06;;;;;;;4.70;1.80;;;;;;;15.67;78.93;98461.16;107507;1254;61678;-38
2023/07/28 01:04:34;;;;;;;4.20;2.00;;;;;;;15.68;78.95;98461.69;107680;1252;60309;-38
2023/07/28 01:07:17;;;;;;;5.20;1.90;;;;;;;15.71;79.06;98459.61;107526;1254;73880;-38
2023/07/28 01:10:10;;;;;;;4.30;1.80;;;;;;;15.72;78.88;98459.30;107497;1254;66815;-38
2023/07/28 01:12:38;;;;;;;4.50;2.10;;;;;;;15.69;78.93;98456.45;107591;1254;72788;-38
2023/07/28 01:15:06;;;;;;;3.00;1.60;;;;;;;15.66;79.21;98452.59;107545;1255;61765;-38
2023/07/28 01:17:34;;;;;;;3.60;1.70;;;;;;;15.69;79.22;98450.97;107599;1254;60431;-38
2023/07/28 01:20:03;;;;;;;3.30;1.90;;;;;;;15.73;78.87;98458.96;107585;1252;72541;-38
2023/07/28 01:22:57;;;;;;;6.30;2.40;;;;;;;15.72;78.86;98464.99;107575;1254;67601;-38
2023/07/28 01:25:55;;;;;;;3.70;1.70;;;;;;;15.72;78.74;98469.52;107564;1257;71451;-38
2023/07/28 01:28:23;;;;;;;5.70;1.70;;;;;;;15.71;78.69;98476.23;107531;1254;62124;-38
2023/07/28 01:30:51;;;;;;;4.30;1.70;;;;;;;15.73;78.86;98471.77;107594;1257;60280;-38
2023/07/28 01:33:19;;;;;;;2.80;1.70;;;;;;;15.74;78.49;98469.63;107500;1254;73892;-38
2023/07/28 01:35:46;;;;;;;3.80;1.80;;;;;;;15.70;78.20;98474.14;107647;1254;68250;-38
2023/07/28 01:38:14;;;;;;;3.50;2.00;;;;;;;15.66;78.34;98477.02;107606;1253;72614;-38
2023/07/28 01:40:41;;;;;;;3.20;1.90;;;;;;;15.67;78.41;98477.54;107608;1257;60584;-38
2023/07/28 01:43:09;;;;;;;4.20;2.00;;;;;;;15.71;78.08;98477.58;107623;1254;60245;-38
2023/07/28 01:45:36;;;;;;;7.10;2.30;;;;;;;15.67;78.10;98474.66;107625;1254;72454;-38
2023/07/28 01:48:05;;;;;;;5.60;1.80;;;;;;;15.60;78.06;98472.98;107605;1253;67659;-38
2023/07/28 01:50:33;;;;;;;3.90;1.80;;;;;;;15.58;78.23;98474.67;107551;1254;71435;-38
2023/07/28 01:53:00;;;;;;;4.90;2.10;;;;;;;15.57;78.17;98477.55;107611;1256;60300;-38
2023/07/28 01:55:28;;;;;;;6.00;1.90;;;;;;;15.53;78.29;98479.72;107512;1254;60584;-38
2023/07/28 01:58:00;;;;;;;7.00;2.20;;;;;;;15.50;78.38;98478.88;107636;1256;73793;-38
2023/07/28 02:00:28;;;;;;;4.60;1.90;;;;;;;15.43;78.48;98478.98;107632;1259;66759;-38
2023/07/28 02:02:56;;;;;;;2.70;1.70;;;;;;;15.41;78.50;98478.92;107493;1254;72673;-38
2023/07/28 02:05:24;;;;;;;7.30;1.90;;;;;;;15.41;78.54;98480.34;107754;1254;60599;-38
2023/07/28 02:07:52;;;;;;;4.00;2.10;;;;;;;15.42;78.64;98483.23;107688;1254;60303;-38
2023/07/28 02:10:19;;;;;;;3.70;1.80;;;;;;;15.41;78.59;98484.40;107637;1256;72640;-38
2023/07/28 02:12:47;;;;;;;5.30;1.80;;;;;;;15.38;78.53;98487.88;107640;1254;66585;-38
2023/07/28 02:15:15;;;;;;;5.90;1.80;;;;;;;15.38;78.54;98494.91;107600;1257;71463;-38
2023/07/28 02:17:42;;;;;;;7.10;2.20;;;;;;;15.38;78.34;98499.66;107632;1254;60315;-38
2023/07/28 02:20:15;;;;;;;2.20;1.60;;;;;;;15.35;78.26;98502.98;107631;1254;60017;-38
2023/07/28 02:22:42;;;;;;;5.50;2.20;;;;;;;15.30;78.58;98508.13;107623;1254;73891;-38
2023/07/28 02:25:10;;;;;;;2.50;1.70;;;;;;;15.27;78.72;98514.41;107486;1257;67550;-38
2023/07/28 02:27:38;;;;;;;5.90;1.90;;;;;;;15.27;78.56;98515.96;107597;1255;71531;-38
2023/07/28 02:30:06;;;;;;;3.60;2.00;;;;;;;15.29;78.69;98517.95;107648;1253;60276;-38
2023/07/28 02:32:34;;;;;;;4.50;2.20;;;;;;;15.29;78.64;98524.14;107693;1254;60303;-38
2023/07/28 02:35:02;;;;;;;5.60;2.00;;;;;;;15.24;78.70;98529.27;107513;1257;73838;-38
2023/07/28 02:37:29;;;;;;;2.10;1.60;;;;;;;15.25;78.74;98534.17;107659;1254;66341;-38
2023/07/28 02:39:57;;;;;;;8.70;2.30;;;;;;;15.29;78.70;98538.70;107607;1254;72804;-38
2023/07/28 02:42:25;;;;;;;3.40;2.10;;;;;;;15.34;78.44;98541.39;107634;1256;60379;-38
2023/07/28 02:44:52;;;;;;;4.40;2.10;;;;;;;15.33;78.08;98537.81;107664;1254;60294;-38
2023/07/28 02:47:20;;;;;;;4.00;1.80;;;;;;;15.30;77.87;98544.11;107642;1254;73838;-38
2023/07/28 02:49:47;;;;;;;6.90;2.50;;;;;;;15.27;77.57;98543.59;107622;1257;67513;-38
2023/07/28 02:52:15;;;;;;;5.50;2.10;;;;;;;15.26;77.83;98544.84;107615;1254;72813;-39
2023/07/28 02:54:42;;;;;;;4.90;2.20;;;;;;;15.26;77.30;98551.94;107514;1256;60495;-38
2023/07/28 02:57:10;;;;;;;5.80;2.20;;;;;;;15.20;77.14;98556.30;107636;1254;60341;-38
2023/07/28 02:59:39;;;;;;;4.60;2.00;;;;;;;15.12;77.38;98559.30;107478;1252;72628;-38
2023/07/28 03:02:07;;;;;;;5.70;2.00;;;;;;;15.07;77.46;98558.56;107515;1260;67909;-38
2023/07/28 03:04:35;;;;;;;5.80;2.30;;;;;;;15.04;77.54;98558.08;107507;1254;71451;-38
2023/07/28 03:07:22;;;;;;;4.30;1.80;;;;;;;15.01;77.66;98561.99;107324;1255;60593;-38
2023/07/28 03:09:55;;;;;;;4.10;2.00;;;;;;;14.99;77.52;98563.27;107656;1253;60296;-38
2023/07/28 03:12:23;;;;;;;3.70;2.00;;;;;;;14.95;77.63;98563.48;107619;1254;72801;-38
2023/07/28 03:14:51;;;;;;;4.40;1.70;;;;;;;14.96;77.43;98565.13;107506;1255;67605;-38
2023/07/28 03:17:18;;;;;;;3.00;1.60;;;;;;;14.95;77.20;98573.14;107609;1254;72678;-38
2023/07/28 03:19:46;;;;;;;7.30;2.00;;;;;;;14.93;77.15;98577.45;107474;1253;60382;-38
2023/07/28 03:22:13;;;;;;;5.30;2.10;;;;;;;14.89;77.08;98578.05;107645;1253;60769;-38
2023/07/28 03:24:42;;;;;;;5.60;2.10;;;;;;;14.83;76.99;98574.60;107453;1260;73886;-38
2023/07/28 03:27:10;;;;;;;4.20;2.00;;;;;;;14.81;76.93;98582.34;107589;1254;67667;-38
2023/07/28 03:29:37;;;;;;;4.30;1.90;;;;;;;14.84;76.90;98578.41;107505;1254;72771;-38
2023/07/28 03:32:05;;;;;;;6.40;1.80;;;;;;;14.83;76.64;98580.77;107485;1254;60380;-38
2023/07/28 03:34:33;;;;;;;5.90;2.50;;;;;;;14.78;76.67;98585.33;107527;1260;60300;-38
2023/07/28 03:37:03;;;;;;;4.20;2.10;;;;;;;14.72;76.71;98590.54;107598;1253;72579;-38
2023/07/28 03:39:31;;;;;;;5.70;2.40;;;;;;;14.72;76.73;98595.38;107594;1257;67867;-38
2023/07/28 03:41:59;;;;;;;7.10;2.20;;;;;;;14.73;76.58;98597.09;107646;1254;71450;-38
2023/07/28 03:44:26;;;;;;;6.70;2.30;;;;;;;14.73;76.63;98598.71;107409;1257;60251;-38
2023/07/28 03:46:54;;;;;;;6.20;2.40;;;;;;;14.70;76.43;98600.55;107409;1259;60619;-39
2023/07/28 03:49:21;;;;;;;5.30;2.10;;;;;;;14.66;76.68;98605.42;107621;1257;73874;-38
2023/07/28 03:51:49;;;;;;;7.50;2.60;;;;;;;14.67;76.89;98599.80;107592;1257;66747;-38
2023/07/28 03:54:17;;;;;;;7.20;2.40;;;;;;;14.71;76.88;98594.38;107610;1257;72711;-38
2023/07/28 03:56:46;;;;;;;4.30;2.30;;;;;;;14.74;76.93;98595.83;107617;1253;60482;-38
2023/07/28 03:59:14;;;;;;;3.30;2.10;;;;;;;14.76;76.56;98598.22;107668;1254;60408;-38
2023/07/28 04:01:42;;;;;;;5.00;2.30;;;;;;;14.75;76.45;98602.60;107487;1259;73884;-38
2023/07/28 04:04:10;;;;;;;7.40;2.70;;;;;;;14.76;76.40;98594.40;107525;1254;67554;-38
2023/07/28 04:06:41;;;;;;;6.00;2.60;;;;;;;14.80;76.40;98591.95;107476;1254;71981;-38
2023/07/28 04:09:09;;;;;;;4.40;2.10;;;;;;;14.84;76.12;98595.73;107510;1254;60487;-38
2023/07/28 04:11:37;;;;;;;4.70;2.50;;;;;;;14.83;76.18;98595.02;107498;1259;60424;-38
2023/07/28 04:14:05;;;;;;;4.70;2.50;;;;;;;14.81;76.22;98596.08;107470;1254;72585;-38
2023/07/28 04:16:32;;;;;;;5.50;1.70;;;;;;;14.82;75.87;98590.84;107485;1254;66313;-38
2023/07/28 04:19:00;;;;;;;6.00;2.10;;;;;;;14.86;75.82;98589.77;107482;1255;72694;-38
2023/07/28 04:21:28;;;;;;;4.70;2.10;;;;;;;14.92;75.98;98588.08;107516;1254;60281;-38
2023/07/28 04:23:56;;;;;;;7.00;2.50;;;;;;;14.98;75.90;98589.64;107525;1255;60425;-38
2023/07/28 04:26:24;;;;;;;6.70;2.00;;;;;;;15.02;75.55;98583.91;107482;1257;72534;-38
2023/07/28 04:28:57;;;;;;;4.10;1.80;;;;;;;15.08;75.19;98585.07;107509;1254;67068;-38
2023/07/28 04:31:24;;;;;;;2.30;1.80;;;;;;;15.15;74.74;98584.06;107479;1259;72719;-38
2023/07/28 04:33:55;;;;;;;3.70;1.90;;;;;;;15.20;74.72;98584.93;107471;1254;60415;-38
2023/07/28 04:36:24;;;;;;;5.60;2.00;;;;;;;15.25;74.71;98582.77;107502;1254;60262;-38
2023/07/28 04:38:51;;;;;;;3.70;2.10;;;;;;;15.29;74.45;98579.91;107498;1254;72709;-38
2023/07/28 04:41:19;;;;;;;5.30;1.90;;;;;;;15.35;74.17;98573.36;107496;1260;66273;-38
2023/07/28 04:43:50;;;;;;;4.70;1.60;;;;;;;15.43;73.67;98574.05;107512;1254;71484;-38
2023/07/28 04:46:18;;;;;;;6.20;1.90;;;;;;;15.45;73.53;98576.27;107484;1254;60404;-38
2023/07/28 04:48:49;;;;;;;5.40;2.00;;;;;;;15.48;73.81;98575.61;107475;1254;60435;-39
2023/07/28 04:51:35;;;;;;;6.30;1.60;;;;;;;15.53;73.91;98579.39;107495;1253;72606;-38
2023/07/28 04:54:32;;;;;;;3.50;1.50;;;;;;;15.64;73.11;98583.22;107390;1254;67087;-38
2023/07/28 04:57:00;;;;;;;5.40;1.90;;;;;;;15.72;72.46;98584.44;107379;1257;71381;-38
2023/07/28 04:59:32;;;;;;;4.00;1.90;;;;;;;15.76;72.15;98579.08;107539;1253;60562;-38
2023/07/28 05:02:00;;;;;;;3.10;1.60;;;;;;;15.80;72.15;98576.66;107541;1254;60383;-38
2023/07/28 05:04:27;;;;;;;4.60;2.10;;;;;;;15.85;71.97;98578.39;107488;1259;72640;-38
2023/07/28 05:06:55;;;;;;;3.50;1.80;;;;;;;15.91;71.15;98583.45;107497;1258;67946;-39
2023/07/28 05:09:23;;;;;;;3.00;1.70;;;;;;;16.00;70.71;98581.84;107510;1254;71450;-39
2023/07/28 05:11:50;;;;;;;3.20;1.90;;;;;;;16.06;70.07;98584.38;107493;1259;60473;-38
2023/07/28 05:14:18;;;;;;;4.20;1.70;;;;;;;16.11;69.07;98582.91;107581;1254;60303;-38
2023/07/28 05:16:46;;;;;;;4.50;1.80;;;;;;;16.15;67.44;98581.45;107481;1254;73792;-38
2023/07/28 05:19:34;;;;;;;6.70;1.60;;;;;;;16.18;67.06;98583.04;107501;1254;66778;-38
2023/07/28 05:22:02;;;;;;;7.20;1.70;;;;;;;16.19;67.19;98579.13;107509;1254;72673;-38
2023/07/28 05:24:36;;;;;;;2.90;1.40;;;;;;;16.27;66.96;98583.20;107495;1254;60504;-38
2023/07/28 05:27:05;;;;;;;3.80;1.90;;;;;;;16.37;64.88;98585.85;107421;1260;60064;-38
2023/07/28 05:29:32;;;;;;;4.70;1.60;;;;;;;16.42;64.54;98585.93;107591;1254;74016;-38
2023/07/28 05:32:04;;;;;;;2.60;1.70;;;;;;;16.44;63.39;98578.14;107543;1254;66764;-38
2023/07/28 05:34:37;;;;;;;2.70;1.60;;;;;;;16.47;64.01;98573.24;107530;1254;71458;-38
2023/07/28 05:37:05;;;;;;;4.00;1.90;;;;;;;16.50;64.30;98576.16;107507;1257;60210;-38
2023/07/28 05:39:32;;;;;;;3.70;1.60;;;;;;;16.53;63.20;98575.56;107570;1254;60558;-38
2023/07/28 05:42:00;;;;;;;3.60;1.90;;;;;;;16.57;63.02;98587.79;107394;1253;73824;-38
2023/07/28 05:44:28;;;;;;;5.00;1.60;;;;;;;16.59;63.41;98589.80;107375;1254;66733;-38
2023/07/28 05:46:55;;;;;;;3.00;1.40;;;;;;;16.67;63.54;98588.89;107398;1253;72659;-39
2023/07/28 05:49:23;;;;;;;6.70;1.70;;;;;;;16.79;63.61;98584.59;107463;1255;60292;-38
2023/07/28 05:51:50;;;;;;;3.60;1.60;;;;;;;16.90;63.09;98590.33;107670;1254;60479;-38
2023/07/28 05:54:18;;;;;;;3.40;1.80;;;;;;;16.99;62.21;98590.48;107545;1254;73795;-38
2023/07/28 05:56:46;;;;;;;4.50;1.80;;;;;;;17.02;62.46;98589.30;107480;1254;66788;-38
2023/07/28 05:59:13;;;;;;;2.80;1.70;;;;;;;17.07;63.20;98597.05;107457;1254;72681;-38
2023/07/28 06:01:41;;;;;;;6.90;1.70;;;;;;;17.10;63.13;98593.94;107472;1254;60304;-38
2023/07/28 06:04:47;;;;;;;2.30;1.40;;;;;;;17.17;64.14;98598.79;107378;1260;60326;-38
2023/07/28 06:07:15;;;;;;;3.90;1.70;;;;;;;17.24;63.43;98598.80;107447;1254;73848;-38
2023/07/28 06:09:42;;;;;;;8.90;1.70;;;;;;;17.35;62.88;98605.41;107475;1254;67911;-38
2023/07/28 06:12:10;;;;;;;4.90;1.90;;;;;;;17.39;63.00;98599.77;107621;1257;71036;-38
2023/07/28 06:14:38;;;;;;;4.80;1.90;;;;;;;17.46;62.71;98598.59;107491;1254;60980;-38
2023/07/28 06:17:07;;;;;;;2.80;1.80;;;;;;;17.54;62.98;98602.75;107618;1254;60302;-38
2023/07/28 06:19:35;;;;;;;4.80;2.00;;;;;;;17.61;62.72;98598.30;107602;1256;72631;-38
2023/07/28 06:22:04;;;;;;;4.30;1.60;;;;;;;17.67;61.23;98603.11;107444;1253;68089;-43
2023/07/28 06:24:35;;;;;;;3.10;1.70;;;;;;;17.69;61.08;98602.90;107612;1253;71543;-38
2023/07/28 06:27:07;;;;;;;6.30;1.40;;;;;;;17.72;60.68;98603.46;107665;1254;60459;-38
2023/07/28 06:29:37;;;;;;;3.20;1.60;;;;;;;17.75;59.00;98607.52;107504;1254;60261;-38
2023/07/28 06:32:05;;;;;;;3.00;1.70;;;;;;;17.78;58.82;98606.94;107520;1254;72541;-38
2023/07/28 06:34:33;;;;;;;5.20;1.90;;;;;;;17.81;59.60;98608.83;107384;1258;66875;-39
2023/07/28 06:37:01;;;;;;;3.30;1.80;;;;;;;17.86;59.46;98613.11;107520;1253;72704;-39
2023/07/28 06:39:30;;;;;;;4.30;1.90;;;;;;;17.92;59.70;98615.02;107634;1254;60395;-39
2023/07/28 06:41:57;;;;;;;2.80;1.50;;;;;;;17.99;60.20;98620.10;107457;1252;60540;-39
2023/07/28 06:44:26;;;;;;;3.00;1.60;;;;;;;18.11;60.10;98623.03;107473;1254;73837;-39
2023/07/28 06:46:53;;;;;;;4.60;1.90;;;;;;;18.25;60.87;98621.60;107606;1254;66422;-39
2023/07/28 06:49:22;;;;;;;3.30;1.70;;;;;;;18.39;59.94;98628.48;107564;1254;71418;-39
2023/07/28 06:51:49;;;;;;;2.80;1.60;;;;;;;18.50;59.47;98626.80;107591;1254;60380;-39
2023/07/28 06:54:18;;;;;;;2.80;1.70;;;;;;;18.58;58.16;98626.54;107626;1254;60299;-39
2023/07/28 06:56:45;;;;;;;3.00;1.40;;;;;;;18.65;56.36;98626.84;107599;1254;74311;-38
2023/07/28 06:59:13;;;;;;;2.90;1.60;;;;;;;18.71;55.63;98629.81;107598;1256;67640;-39
2023/07/28 07:01:46;;;;;;;3.30;2.20;;;;;;;18.77;55.60;98628.17;107444;1254;194830;-40
2023/07/28 07:06:32;;;;;;;27.40;4.00;;;;;;;18.90;55.19;98622.05;104221;1293;600224;-40
2023/07/28 07:08:59;;;;;;;6.80;1.90;;;;;;;18.97;55.71;98626.95;106613;1267;60066;-39
2023/07/28 07:11:27;;;;;;;2.90;1.70;;;;;;;19.08;55.18;98628.14;106639;1266;59260;-39
2023/07/28 07:13:54;;;;;;;5.80;1.70;;;;;;;19.16;53.68;98629.00;106682;1267;72673;-38
2023/07/28 07:16:22;;;;;;;19.60;4.30;;;;;;;19.22;52.94;98627.54;106616;1267;66836;-39
2023/07/28 07:18:52;;;;;;;2.30;1.40;;;;;;;19.27;52.99;98623.15;106616;1268;72717;-38
2023/07/28 07:21:19;;;;;;;4.90;1.60;;;;;;;19.32;53.89;98625.20;106588;1263;197631;-38
2023/07/28 07:23:47;;;;;;;4.20;1.60;;;;;;;19.39;52.82;98623.49;107117;1257;59854;-39
2023/07/28 07:26:27;;;;;;;1.90;1.00;;;;;;;19.44;50.88;98639.25;107140;1257;72291;-39
2023/07/28 07:28:54;;;;;;;3.30;1.60;;;;;;;19.45;50.16;98635.94;107169;1262;66518;-39
2023/07/28 07:31:22;;;;;;;5.10;1.80;;;;;;;19.47;50.84;98641.77;107140;1258;72697;-39
2023/07/28 07:33:50;;;;;;;2.80;1.50;;;;;;;19.51;51.08;98641.80;107132;1262;59624;-39
2023/07/28 07:36:18;;;;;;;3.80;1.60;;;;;;;19.59;52.03;98647.32;107150;1257;59516;-39
2023/07/28 07:38:46;;;;;;;5.10;1.70;;;;;;;19.69;52.64;98644.53;107104;1258;73072;-39
2023/07/28 07:41:19;;;;;;;2.80;1.60;;;;;;;19.79;52.50;98641.63;107161;1257;67590;-39
2023/07/28 07:43:48;;;;;;;2.60;1.30;;;;;;;19.87;51.19;98644.65;107191;1257;73189;-39
2023/07/28 07:46:16;;;;;;;4.20;1.40;;;;;;;19.95;50.99;98644.67;107161;1257;60099;-39
2023/07/28 07:48:43;;;;;;;3.40;1.50;;;;;;;20.03;50.45;98649.23;107264;1258;60041;-39
2023/07/28 07:51:11;;;;;;;4.40;1.80;;;;;;;20.11;50.24;98644.95;107153;1257;71793;-39
2023/07/28 07:53:38;;;;;;;6.00;1.80;;;;;;;20.22;50.82;98641.38;107155;1257;67614;-39
2023/07/28 07:56:07;;;;;;;4.20;1.30;;;;;;;20.37;50.68;98638.27;107134;1257;72709;-39
2023/07/28 07:58:35;;;;;;;6.50;1.60;;;;;;;20.51;50.57;98641.12;107318;1260;60074;-39
2023/07/28 08:01:03;;;;;;;2.50;1.50;;;;;;;20.60;48.51;98639.71;107519;1253;60023;-39
2023/07/28 08:03:31;;;;;;;3.40;1.50;;;;;;;20.65;49.38;98641.45;107502;1254;72988;-39
2023/07/28 08:05:59;;;;;;;4.80;1.60;;;;;;;20.75;49.53;98649.59;107523;1254;68038;-40
2023/07/28 08:08:27;;;;;;;4.20;2.20;;;;;;;20.88;49.69;98650.13;107529;1254;72746;-39
2023/07/28 08:10:55;;;;;;;2.50;1.40;;;;;;;20.99;48.88;98655.23;107570;1259;60513;-39
2023/07/28 08:13:23;;;;;;;3.10;1.60;;;;;;;21.09;47.42;98654.57;107546;1259;60002;-39
2023/07/28 08:15:50;;;;;;;2.70;1.30;;;;;;;21.13;48.20;98654.20;107591;1252;72033;-39
2023/07/28 08:18:18;;;;;;;3.70;1.50;;;;;;;21.23;47.08;98660.88;107501;1254;67565;-38
2023/07/28 08:20:45;;;;;;;5.00;1.70;;;;;;;21.30;46.43;98658.92;107467;1254;72670;-38
2023/07/28 08:23:13;;;;;;;1.90;1.30;;;;;;;21.34;47.04;98659.81;107494;1259;59622;-38
2023/07/28 08:25:41;;;;;;;5.00;1.80;;;;;;;21.39;46.90;98663.77;107486;1257;60073;-38
2023/07/28 08:28:09;;;;;;;2.30;1.50;;;;;;;21.47;46.73;98662.88;107524;1254;72297;-39
2023/07/28 08:30:36;;;;;;;3.80;1.60;;;;;;;21.52;45.98;98669.15;107494;1259;67939;-38
2023/07/28 08:33:04;;;;;;;3.80;1.40;;;;;;;21.55;46.01;98664.69;107529;1259;71418;-39
2023/07/28 08:35:32;;;;;;;6.60;1.70;;;;;;;21.58;43.71;98667.03;107494;1255;60052;-39
2023/07/28 08:37:59;;;;;;;3.30;1.90;;;;;;;21.62;44.32;98665.56;107508;1254;60464;-39
2023/07/28 08:40:27;;;;;;;4.80;1.90;;;;;;;21.67;44.12;98663.98;107527;1254;73037;-39
2023/07/28 08:42:55;;;;;;;3.30;1.20;;;;;;;21.74;45.17;98662.57;107369;1255;67790;-39
2023/07/28 08:45:24;;;;;;;1.70;1.20;;;;;;;21.81;42.91;98662.30;107500;1254;71461;-38
2023/07/28 08:47:51;;;;;;;3.50;1.80;;;;;;;21.88;43.19;98661.02;107557;1257;60034;-39
2023/07/28 08:50:19;;;;;;;2.10;1.50;;;;;;;21.95;44.01;98660.45;107500;1253;60024;-39
2023/07/28 08:52:49;;;;;;;2.90;1.80;;;;;;;22.03;43.60;98658.82;107543;1253;71837;-38
2023/07/28 08:55:17;;;;;;;1.90;1.30;;;;;;;22.11;43.94;98658.88;107486;1254;67586;-39
2023/07/28 08:57:44;;;;;;;12.80;2.20;;;;;;;22.20;43.79;98665.27;107512;1254;72716;-39
2023/07/28 09:00:16;;;;;;;3.50;1.40;;;;;;;22.26;43.23;98664.61;107505;1255;59756;-39
2023/07/28 09:02:45;;;;;;;2.40;1.20;;;;;;;22.34;42.98;98664.87;107420;1254;60202;-39
2023/07/28 09:05:19;;;;;;;3.00;1.50;;;;;;;22.37;41.96;98668.05;107441;1254;73015;-39
2023/07/28 09:07:50;;;;;;;2.60;1.20;;;;;;;22.39;43.05;98670.24;107482;1253;67888;-39
2023/07/28 09:10:17;;;;;;;4.70;1.40;;;;;;;22.43;42.06;98663.14;107545;1257;72651;-39
2023/07/28 09:12:50;;;;;;;3.20;1.30;;;;;;;22.49;42.42;98667.48;107632;1259;59533;-39
2023/07/28 09:15:17;;;;;;;3.00;1.50;;;;;;;22.55;42.97;98673.30;107387;1254;60052;-39
2023/07/28 09:17:45;;;;;;;2.70;1.30;;;;;;;22.64;42.86;98674.39;107380;1255;73504;-39
2023/07/28 09:20:14;;;;;;;3.80;1.30;;;;;;;22.70;42.59;98672.70;107538;1254;67551;-39
2023/07/28 09:22:43;;;;;;;4.10;1.70;;;;;;;22.76;42.89;98675.16;107503;1253;72709;-39
2023/07/28 09:25:15;;;;;;;1.70;1.20;;;;;;;22.82;42.93;98677.50;107548;1254;59570;-39
2023/07/28 09:27:50;;;;;;;2.70;1.50;;;;;;;22.90;42.62;98672.94;107529;1254;60100;-40
2023/07/28 09:30:19;;;;;;;2.50;1.50;;;;;;;23.00;43.61;98671.80;107451;1259;73082;-39
2023/07/28 09:32:48;;;;;;;2.90;1.40;;;;;;;23.12;42.62;98673.73;107421;1254;67604;-39
2023/07/28 09:35:16;;;;;;;2.50;1.30;;;;;;;23.21;42.30;98675.79;107466;1254;73118;-40
2023/07/28 09:37:47;;;;;;;3.30;1.40;;;;;;;23.27;42.45;98666.92;107502;1254;59698;-40
2023/07/28 09:40:17;;;;;;;4.10;1.40;;;;;;;23.32;41.93;98669.36;107541;1255;59589;-40
2023/07/28 09:42:49;;;;;;;2.50;1.50;;;;;;;23.39;42.47;98678.14;107523;1255;73065;-39
2023/07/28 09:45:21;;;;;;;2.70;1.30;;;;;;;23.46;41.19;98672.02;107495;1258;67856;-40
2023/07/28 09:48:09;;;;;;;2.80;1.40;;;;;;;23.51;41.86;98673.49;107479;1254;72709;-40
2023/07/28 09:50:38;;;;;;;4.10;1.20;;;;;;;23.57;41.83;98674.96;107413;1254;59301;-40
2023/07/28 09:53:07;;;;;;;2.20;1.30;;;;;;;23.64;42.31;98676.45;107559;1254;59807;-40
2023/07/28 09:55:35;;;;;;;3.60;1.20;;;;;;;23.73;42.04;98684.40;107427;1255;71386;-39
2023/07/28 09:58:05;;;;;;;4.50;1.50;;;;;;;23.82;42.02;98683.55;107370;1254;66284;-40
2023/07/28 10:00:33;;;;;;;2.40;1.80;;;;;;;23.90;41.37;98681.99;107455;1254;72690;-39
2023/07/28 10:03:02;;;;;;;5.90;1.90;;;;;;;23.98;41.88;98679.17;107311;1254;60229;-40
2023/07/28 10:05:30;;;;;;;5.10;1.60;;;;;;;24.08;41.52;98683.84;107537;1254;60009;-40
2023/07/28 10:07:59;;;;;;;3.20;1.20;;;;;;;24.19;41.93;98686.56;107463;1254;73047;-40
2023/07/28 10:10:26;;;;;;;3.50;1.40;;;;;;;24.36;41.59;98683.33;107251;1260;67571;-40
2023/07/28 10:12:57;;;;;;;3.20;1.40;;;;;;;24.51;40.48;98683.48;107372;1254;71385;-40
2023/07/28 10:15:29;;;;;;;3.00;1.40;;;;;;;24.59;40.02;98684.65;107445;1258;60139;-40
2023/07/28 10:17:59;;;;;;;3.50;1.50;;;;;;;24.65;39.57;98683.24;107489;1254;60033;-39
2023/07/28 10:20:32;;;;;;;5.40;1.50;;;;;;;24.71;39.38;98684.39;107660;1254;71733;-39
2023/07/28 10:23:13;;;;;;;1.60;0.90;;;;;;;24.73;39.29;98681.45;107504;1258;67702;-40
2023/07/28 10:25:41;;;;;;;3.20;1.00;;;;;;;24.76;39.52;98678.13;107462;1255;72705;-40
2023/07/28 10:28:25;;;;;;;2.30;1.20;;;;;;;24.82;39.38;98678.80;107478;1255;60035;-39
2023/07/28 10:30:54;;;;;;;3.70;1.30;;;;;;;24.93;39.82;98676.27;107487;1259;59503;-39
2023/07/28 10:33:41;;;;;;;3.40;1.20;;;;;;;25.05;39.15;98675.14;107506;1255;73138;-40
2023/07/28 10:36:29;;;;;;;2.60;1.30;;;;;;;25.03;38.64;98673.29;107409;1258;68342;-40
2023/07/28 10:39:12;;;;;;;5.80;1.50;;;;;;;24.91;38.88;98671.46;107309;1260;73141;-39
2023/07/28 10:41:59;;;;;;;1.70;1.10;;;;;;;24.82;38.68;98676.04;107356;1255;59607;-39
2023/07/28 10:44:27;;;;;;;12.80;2.30;;;;;;;24.67;37.81;98680.00;107300;1260;59173;-40
2023/07/28 10:46:54;;;;;;;2.80;1.20;;;;;;;24.51;38.79;98674.67;107414;1259;73114;-40
2023/07/28 10:49:24;;;;;;;5.10;1.50;;;;;;;24.53;39.27;98667.95;107409;1259;67750;-40
2023/07/28 10:51:51;;;;;;;6.20;1.80;;;;;;;24.65;39.96;98671.05;107451;1254;72696;-40
2023/07/28 10:54:20;;;;;;;2.40;1.40;;;;;;;24.79;39.07;98677.22;107480;1254;60080;-40
2023/07/28 10:56:48;;;;;;;4.00;1.10;;;;;;;24.91;38.91;98675.41;107559;1254;60049;-40
2023/07/28 10:59:15;;;;;;;2.10;1.20;;;;;;;25.03;39.13;98678.77;107512;1255;71852;-40
2023/07/28 11:01:43;;;;;;;4.10;1.30;;;;;;;25.12;39.42;98678.70;107462;1260;67224;-40
2023/07/28 11:04:16;;;;;;;1.90;1.10;;;;;;;25.21;39.50;98677.92;107372;1254;72692;-40
2023/07/28 11:06:45;;;;;;;2.10;1.10;;;;;;;25.29;38.82;98681.40;107515;1252;59604;-39
2023/07/28 11:09:14;;;;;;;2.60;1.10;;;;;;;25.33;38.97;98675.73;107571;1257;60616;-39
2023/07/28 11:11:42;;;;;;;1.40;1.20;;;;;;;25.48;37.59;98680.55;107431;1254;73064;-40
2023/07/28 11:14:15;;;;;;;2.10;1.30;;;;;;;25.63;37.53;98678.08;107339;1260;67629;-39
2023/07/28 11:16:44;;;;;;;2.50;1.30;;;;;;;25.83;37.33;98678.39;107448;1254;71658;-40
2023/07/28 11:19:13;;;;;;;;;;;;;;;26.03;35.38;98678.27;107445;1257;60350;-40
2023/07/28 11:21:42;;;;;;;4.60;1.30;;;;;;;26.14;35.92;98674.19;107593;1254;60385;-39
2023/07/28 11:24:10;;;;;;;2.40;1.30;;;;;;;26.30;35.89;98679.02;107566;1254;73875;-39
2023/07/28 11:26:39;;;;;;;1.80;1.10;;;;;;;26.39;35.38;98675.47;107499;1254;67639;-40
2023/07/28 11:29:06;;;;;;;3.60;1.10;;;;;;;26.51;36.24;98672.50;107432;1254;71388;-40
2023/07/28 11:31:34;;;;;;;2.10;1.30;;;;;;;26.78;36.19;98668.09;107464;1254;60289;-40
2023/07/28 11:34:02;;;;;;;2.50;1.40;;;;;;;27.09;35.28;98671.92;107519;1254;60481;-40
2023/07/28 11:36:30;;;;;;;4.60;1.40;;;;;;;27.29;34.07;98673.63;107453;1254;73143;-39